sensor_id;sensor_type;location;lat;lon;timestamp;pressure;altitude;pressure_sealevel;temperature;humidity
56174;BME280;42058;52.308;20.924;2022-09-27T00:00:43;99377.27;;;13.02;100.00
56174;BME280;42058;52.308;20.924;2022-09-27T00:03:11;99375.86;;;13.04;100.00
56174;BME280;42058;52.308;20.924;2022-09-27T00:05:38;99374.91;;;13.05;100.00
56174;BME280;42058;52.308;20.924;2022-09-27T00:08:04;99370.88;;;13.06;100.00
56174;BME280;42058;52.308;20.924;2022-09-27T00:10:31;99370.31;;;13.08;100.00
56174;BME280;42058;52.308;20.924;2022-09-27T00:12:57;99375.92;;;13.11;100.00
56174;BME280;42058;52.308;20.924;2022-09-27T00:15:24;99378.94;;;13.12;100.00
56174;BME280;42058;52.308;20.924;2022-09-27T00:17:50;99378.48;;;13.13;100.00
56174;BME280;42058;52.308;20.924;2022-09-27T00:20:18;99369.69;;;13.12;100.00
56174;BME280;42058;52.308;20.924;2022-09-27T00:22:48;99366.20;;;13.12;100.00
56174;BME280;42058;52.308;20.924;2022-09-27T00:25:14;99363.56;;;13.12;100.00
56174;BME280;42058;52.308;20.924;2022-09-27T00:27:41;99366.13;;;13.13;100.00
56174;BME280;42058;52.308;20.924;2022-09-27T00:30:09;99359.92;;;13.14;100.00
56174;BME280;42058;52.308;20.924;2022-09-27T00:32:36;99356.33;;;13.15;100.00
56174;BME280;42058;52.308;20.924;2022-09-27T00:35:02;99354.64;;;13.14;100.00
56174;BME280;42058;52.308;20.924;2022-09-27T00:37:28;99353.69;;;13.15;100.00
56174;BME280;42058;52.308;20.924;2022-09-27T00:39:54;99358.89;;;13.17;100.00
56174;BME280;42058;52.308;20.924;2022-09-27T00:42:20;99346.61;;;13.16;100.00
56174;BME280;42058;52.308;20.924;2022-09-27T00:44:54;99340.32;;;13.18;100.00
56174;BME280;42058;52.308;20.924;2022-09-27T00:47:28;99340.69;;;13.19;100.00
56174;BME280;42058;52.308;20.924;2022-09-27T00:50:02;99334.48;;;13.20;100.00
56174;BME280;42058;52.308;20.924;2022-09-27T00:52:46;99332.20;;;13.21;100.00
56174;BME280;42058;52.308;20.924;2022-09-27T00:55:24;99325.71;;;13.20;100.00
56174;BME280;42058;52.308;20.924;2022-09-27T00:57:53;99326.55;;;13.20;100.00
56174;BME280;42058;52.308;20.924;2022-09-27T01:00:21;99331.36;;;13.21;100.00
56174;BME280;42058;52.308;20.924;2022-09-27T01:02:50;99330.04;;;13.21;100.00
56174;BME280;42058;52.308;20.924;2022-09-27T01:05:20;99321.19;;;13.22;100.00
56174;BME280;42058;52.308;20.924;2022-09-27T01:07:49;99319.39;;;13.22;100.00
56174;BME280;42058;52.308;20.924;2022-09-27T01:10:17;99325.08;;;13.23;100.00
56174;BME280;42058;52.308;20.924;2022-09-27T01:13:10;99323.75;;;13.23;100.00
56174;BME280;42058;52.308;20.924;2022-09-27T01:15:56;99329.04;;;13.23;100.00
56174;BME280;42058;52.308;20.924;2022-09-27T01:18:32;99328.48;;;13.25;100.00
56174;BME280;42058;52.308;20.924;2022-09-27T01:21:08;99325.44;;;13.24;100.00
56174;BME280;42058;52.308;20.924;2022-09-27T01:29:39;99317.36;;;13.27;100.00
56174;BME280;42058;52.308;20.924;2022-09-27T01:32:27;99313.39;;;13.27;100.00
56174;BME280;42058;52.308;20.924;2022-09-27T01:37:42;99324.44;;;13.27;100.00
56174;BME280;42058;52.308;20.924;2022-09-27T01:40:17;99316.59;;;13.25;100.00
56174;BME280;42058;52.308;20.924;2022-09-27T01:43:17;99313.55;;;13.24;100.00
56174;BME280;42058;52.308;20.924;2022-09-27T01:45:55;99310.55;;;13.23;100.00
56174;BME280;42058;52.308;20.924;2022-09-27T01:48:31;99309.22;;;13.23;100.00
56174;BME280;42058;52.308;20.924;2022-09-27T01:51:08;99301.30;;;13.23;100.00
56174;BME280;42058;52.308;20.924;2022-09-27T01:53:42;99303.46;;;13.24;100.00
56174;BME280;42058;52.308;20.924;2022-09-27T01:56:36;99306.95;;;13.24;100.00
56174;BME280;42058;52.308;20.924;2022-09-27T01:59:23;99308.27;;;13.24;100.00
56174;BME280;42058;52.308;20.924;2022-09-27T02:01:59;99306.19;;;13.22;100.00
56174;BME280;42058;52.308;20.924;2022-09-27T02:04:30;99303.94;;;13.23;100.00
56174;BME280;42058;52.308;20.924;2022-09-27T02:07:17;99303.46;;;13.24;100.00
56174;BME280;42058;52.308;20.924;2022-09-27T02:09:56;99300.82;;;13.24;100.00
56174;BME280;42058;52.308;20.924;2022-09-27T02:12:50;99307.80;;;13.25;100.00
56174;BME280;42058;52.308;20.924;2022-09-27T02:15:40;99303.83;;;13.25;100.00
56174;BME280;42058;52.308;20.924;2022-09-27T02:18:33;99294.30;;;13.22;100.00
56174;BME280;42058;52.308;20.924;2022-09-27T02:21:04;99292.22;;;13.20;100.00
56174;BME280;42058;52.308;20.924;2022-09-27T02:23:45;99289.58;;;13.20;100.00
56174;BME280;42058;52.308;20.924;2022-09-27T02:26:19;99280.41;;;13.19;100.00
56174;BME280;42058;52.308;20.924;2022-09-27T02:29:04;99283.89;;;13.19;100.00
56174;BME280;42058;52.308;20.924;2022-09-27T02:31:43;99287.30;;;13.21;100.00
56174;BME280;42058;52.308;20.924;2022-09-27T02:34:15;99281.17;;;13.21;100.00
56174;BME280;42058;52.308;20.924;2022-09-27T02:36:44;99287.77;;;13.21;100.00
56174;BME280;42058;52.308;20.924;2022-09-27T02:39:10;99292.30;;;13.19;100.00
56174;BME280;42058;52.308;20.924;2022-09-27T02:41:37;99284.45;;;13.17;100.00
56174;BME280;42058;52.308;20.924;2022-09-27T02:44:06;99283.53;;;13.18;100.00
56174;BME280;42058;52.308;20.924;2022-09-27T02:46:52;99277.29;;;13.19;100.00
56174;BME280;42058;52.308;20.924;2022-09-27T02:52:12;99272.00;;;13.19;100.00
56174;BME280;42058;52.308;20.924;2022-09-27T03:03:44;99282.36;;;13.15;100.00
56174;BME280;42058;52.308;20.924;2022-09-27T03:06:12;99263.59;;;13.13;100.00
56174;BME280;42058;52.308;20.924;2022-09-27T03:08:42;99268.40;;;13.13;100.00
56174;BME280;42058;52.308;20.924;2022-09-27T03:11:08;99268.00;;;13.12;100.00
56174;BME280;42058;52.308;20.924;2022-09-27T03:13:35;99271.96;;;13.12;100.00
56174;BME280;42058;52.308;20.924;2022-09-27T03:16:05;99265.84;;;13.12;100.00
56174;BME280;42058;52.308;20.924;2022-09-27T03:18:33;99263.27;;;13.10;100.00
56174;BME280;42058;52.308;20.924;2022-09-27T03:21:07;99265.16;;;13.08;100.00
56174;BME280;42058;52.308;20.924;2022-09-27T03:23:33;99265.71;;;13.06;100.00
56174;BME280;42058;52.308;20.924;2022-09-27T03:26:00;99270.59;;;13.05;100.00
56174;BME280;42058;52.308;20.924;2022-09-27T03:28:26;99267.19;;;13.03;100.00
56174;BME280;42058;52.308;20.924;2022-09-27T03:30:54;99269.83;;;13.03;100.00
56174;BME280;42058;52.308;20.924;2022-09-27T03:33:31;99268.14;;;13.02;100.00
56174;BME280;42058;52.308;20.924;2022-09-27T03:36:00;99262.10;;;13.00;100.00
56174;BME280;42058;52.308;20.924;2022-09-27T03:38:26;99260.78;;;13.00;100.00
56174;BME280;42058;52.308;20.924;2022-09-27T03:40:52;99252.46;;;12.99;100.00
56174;BME280;42058;52.308;20.924;2022-09-27T03:43:18;99252.46;;;12.99;100.00
56174;BME280;42058;52.308;20.924;2022-09-27T03:45:45;99243.70;;;12.98;100.00
56174;BME280;42058;52.308;20.924;2022-09-27T03:48:12;99240.22;;;12.98;100.00
56174;BME280;42058;52.308;20.924;2022-09-27T03:50:39;99245.09;;;12.97;100.00
56174;BME280;42058;52.308;20.924;2022-09-27T03:53:05;99237.17;;;12.97;100.00
56174;BME280;42058;52.308;20.924;2022-09-27T03:55:31;99235.45;;;12.96;100.00
56174;BME280;42058;52.308;20.924;2022-09-27T03:57:57;99243.02;;;12.95;100.00
56174;BME280;42058;52.308;20.924;2022-09-27T04:00:26;99244.41;;;12.93;100.00
56174;BME280;42058;52.308;20.924;2022-09-27T04:02:53;99247.53;;;12.93;100.00
56174;BME280;42058;52.308;20.924;2022-09-27T04:05:27;99243.57;;;12.93;100.00
56174;BME280;42058;52.308;20.924;2022-09-27T04:08:02;99240.53;;;12.92;100.00
56174;BME280;42058;52.308;20.924;2022-09-27T04:10:31;99239.61;;;12.93;100.00
56174;BME280;42058;52.308;20.924;2022-09-27T04:12:57;99231.69;;;12.93;100.00
56174;BME280;42058;52.308;20.924;2022-09-27T04:15:24;99218.09;;;12.92;100.00
56174;BME280;42058;52.308;20.924;2022-09-27T04:17:51;99223.21;;;12.95;100.00
56174;BME280;42058;52.308;20.924;2022-09-27T04:20:35;99222.66;;;12.97;100.00
56174;BME280;42058;52.308;20.924;2022-09-27T04:23:03;99227.77;;;13.00;100.00
56174;BME280;42058;52.308;20.924;2022-09-27T04:25:30;99215.77;;;13.01;100.00
56174;BME280;42058;52.308;20.924;2022-09-27T04:27:59;99223.06;;;13.05;100.00
56174;BME280;42058;52.308;20.924;2022-09-27T04:30:28;99219.41;;;13.07;100.00
56174;BME280;42058;52.308;20.924;2022-09-27T04:32:56;99218.09;;;13.07;100.00
56174;BME280;42058;52.308;20.924;2022-09-27T04:35:42;99211.86;;;13.08;100.00
56174;BME280;42058;52.308;20.924;2022-09-27T04:38:27;99217.45;;;13.11;100.00
56174;BME280;42058;52.308;20.924;2022-09-27T04:40:53;99218.22;;;13.13;100.00
56174;BME280;42058;52.308;20.924;2022-09-27T04:43:19;99210.13;;;13.16;100.00
56174;BME280;42058;52.308;20.924;2022-09-27T04:45:46;99211.81;;;13.17;100.00
56174;BME280;42058;52.308;20.924;2022-09-27T04:48:14;99218.81;;;13.18;100.00
56174;BME280;42058;52.308;20.924;2022-09-27T04:50:40;99217.94;;;13.18;100.00
56174;BME280;42058;52.308;20.924;2022-09-27T04:53:06;99220.58;;;13.18;100.00
56174;BME280;42058;52.308;20.924;2022-09-27T04:55:33;99220.13;;;13.18;100.00
56174;BME280;42058;52.308;20.924;2022-09-27T04:57:59;99225.41;;;13.18;100.00
56174;BME280;42058;52.308;20.924;2022-09-27T05:00:26;99222.58;;;13.21;100.00
56174;BME280;42058;52.308;20.924;2022-09-27T05:02:55;99222.58;;;13.21;100.00
56174;BME280;42058;52.308;20.924;2022-09-27T05:05:26;99222.98;;;13.22;100.00
56174;BME280;42058;52.308;20.924;2022-09-27T05:07:52;99226.94;;;13.22;100.00
56174;BME280;42058;52.308;20.924;2022-09-27T05:10:20;99226.54;;;13.21;100.00
56174;BME280;42058;52.308;20.924;2022-09-27T05:12:46;99222.13;;;13.22;100.00
56174;BME280;42058;52.308;20.924;2022-09-27T05:15:14;99222.98;;;13.22;100.00
56174;BME280;42058;52.308;20.924;2022-09-27T05:17:59;99225.62;;;13.22;100.00
56174;BME280;42058;52.308;20.924;2022-09-27T05:20:39;99226.02;;;13.23;100.00
56174;BME280;42058;52.308;20.924;2022-09-27T05:23:08;99224.13;;;13.25;100.00
56174;BME280;42058;52.308;20.924;2022-09-27T05:25:34;99211.84;;;13.24;100.00
56174;BME280;42058;52.308;20.924;2022-09-27T05:28:02;99211.84;;;13.24;100.00
56174;BME280;42058;52.308;20.924;2022-09-27T05:30:29;99209.60;;;13.25;100.00
56174;BME280;42058;52.308;20.924;2022-09-27T05:32:57;99214.80;;;13.27;100.00
56174;BME280;42058;52.308;20.924;2022-09-27T05:35:41;99214.24;;;13.29;100.00
56174;BME280;42058;52.308;20.924;2022-09-27T05:38:09;99211.55;;;13.31;100.00
56174;BME280;42058;52.308;20.924;2022-09-27T05:40:35;99210.23;;;13.31;100.00
56174;BME280;42058;52.308;20.924;2022-09-27T05:43:02;99207.64;;;13.29;100.00
56174;BME280;42058;52.308;20.924;2022-09-27T05:45:28;99200.16;;;13.28;100.00
56174;BME280;42058;52.308;20.924;2022-09-27T05:47:56;99201.12;;;13.27;100.00
56174;BME280;42058;52.308;20.924;2022-09-27T05:50:25;99198.95;;;13.27;100.00
56174;BME280;42058;52.308;20.924;2022-09-27T05:52:53;99203.76;;;13.27;100.00
56174;BME280;42058;52.308;20.924;2022-09-27T05:55:20;99206.27;;;13.31;100.00
56174;BME280;42058;52.308;20.924;2022-09-27T05:58:00;99207.16;;;13.30;100.00
56174;BME280;42058;52.308;20.924;2022-09-27T06:00:30;99211.55;;;13.31;100.00
56174;BME280;42058;52.308;20.924;2022-09-27T06:03:02;99215.03;;;13.31;100.00
56174;BME280;42058;52.308;20.924;2022-09-27T06:05:34;99221.55;;;13.33;100.00
56174;BME280;42058;52.308;20.924;2022-09-27T06:08:20;99230.24;;;13.35;100.00
56174;BME280;42058;52.308;20.924;2022-09-27T06:10:48;99225.72;;;13.37;100.00
56174;BME280;42058;52.308;20.924;2022-09-27T06:13:15;99224.23;;;13.40;100.00
56174;BME280;42058;52.308;20.924;2022-09-27T06:15:43;99219.31;;;13.41;100.00
56174;BME280;42058;52.308;20.924;2022-09-27T06:18:14;99215.73;;;13.42;100.00
56174;BME280;42058;52.308;20.924;2022-09-27T06:20:44;99213.94;;;13.42;100.00
56174;BME280;42058;52.308;20.924;2022-09-27T06:23:12;99214.34;;;13.43;100.00
56174;BME280;42058;52.308;20.924;2022-09-27T06:25:41;99213.86;;;13.44;100.00
56174;BME280;42058;52.308;20.924;2022-09-27T06:28:12;99212.90;;;13.45;100.00
56174;BME280;42058;52.308;20.924;2022-09-27T06:30:46;99214.22;;;13.45;100.00
56174;BME280;42058;52.308;20.924;2022-09-27T06:33:18;99215.18;;;13.44;100.00
56174;BME280;42058;52.308;20.924;2022-09-27T06:35:46;99219.14;;;13.44;100.00
56174;BME280;42058;52.308;20.924;2022-09-27T06:38:15;99219.14;;;13.44;100.00
56174;BME280;42058;52.308;20.924;2022-09-27T06:40:44;99215.55;;;13.45;100.00
56174;BME280;42058;52.308;20.924;2022-09-27T06:43:19;99208.48;;;13.45;100.00
56174;BME280;42058;52.308;20.924;2022-09-27T06:45:53;99201.41;;;13.46;100.00
56174;BME280;42058;52.308;20.924;2022-09-27T06:48:21;99202.16;;;13.48;100.00
56174;BME280;42058;52.308;20.924;2022-09-27T06:50:49;99191.59;;;13.48;100.00
56174;BME280;42058;52.308;20.924;2022-09-27T06:53:15;99195.95;;;13.49;100.00
56174;BME280;42058;52.308;20.924;2022-09-27T06:55:42;99192.55;;;13.47;100.00
56174;BME280;42058;52.308;20.924;2022-09-27T06:58:10;99195.19;;;13.47;100.00
56174;BME280;42058;52.308;20.924;2022-09-27T07:01:14;99198.77;;;13.46;100.00
56174;BME280;42058;52.308;20.924;2022-09-27T07:04:00;99204.61;;;13.44;100.00
56174;BME280;42058;52.308;20.924;2022-09-27T07:06:45;99214.02;;;13.41;100.00
56174;BME280;42058;52.308;20.924;2022-09-27T07:09:13;99222.43;;;13.40;100.00
56174;BME280;42058;52.308;20.924;2022-09-27T07:11:39;99231.20;;;13.41;100.00
56174;BME280;42058;52.308;20.924;2022-09-27T07:14:07;99230.84;;;13.40;100.00
56174;BME280;42058;52.308;20.924;2022-09-27T07:16:35;99234.41;;;13.39;100.00
56174;BME280;42058;52.308;20.924;2022-09-27T07:19:03;99235.81;;;13.37;100.00
56174;BME280;42058;52.308;20.924;2022-09-27T07:21:31;99236.77;;;13.36;100.00
56174;BME280;42058;52.308;20.924;2022-09-27T07:23:57;99232.41;;;13.35;100.00
56174;BME280;42058;52.308;20.924;2022-09-27T07:26:24;99228.44;;;13.35;100.00
56174;BME280;42058;52.308;20.924;2022-09-27T07:28:50;99238.17;;;13.35;100.00
56174;BME280;42058;52.308;20.924;2022-09-27T07:31:18;99247.70;;;13.37;100.00
56174;BME280;42058;52.308;20.924;2022-09-27T07:33:45;99249.58;;;13.35;100.00
56174;BME280;42058;52.308;20.924;2022-09-27T07:36:12;99248.73;;;13.35;100.00
56174;BME280;42058;52.308;20.924;2022-09-27T07:38:41;99239.09;;;13.34;100.00
56174;BME280;42058;52.308;20.924;2022-09-27T07:41:10;99229.68;;;13.37;100.00
56174;BME280;42058;52.308;20.924;2022-09-27T07:43:42;99232.80;;;13.36;100.00
56174;BME280;42058;52.308;20.924;2022-09-27T07:46:12;99236.66;;;13.38;100.00
56174;BME280;42058;52.308;20.924;2022-09-27T07:48:46;99232.60;;;13.39;100.00
56174;BME280;42058;52.308;20.924;2022-09-27T07:51:15;99233.28;;;13.43;100.00
56174;BME280;42058;52.308;20.924;2022-09-27T07:53:43;99225.75;;;13.44;100.00
56174;BME280;42058;52.308;20.924;2022-09-27T07:56:21;99223.47;;;13.45;100.00
56174;BME280;42058;52.308;20.924;2022-09-27T07:58:47;99220.47;;;13.44;100.00
56174;BME280;42058;52.308;20.924;2022-09-27T08:01:13;99230.27;;;13.42;100.00
56174;BME280;42058;52.308;20.924;2022-09-27T08:03:39;99225.91;;;13.41;100.00
56174;BME280;42058;52.308;20.924;2022-09-27T08:06:05;99227.16;;;13.42;100.00
56174;BME280;42058;52.308;20.924;2022-09-27T08:08:32;99224.79;;;13.45;100.00
56174;BME280;42058;52.308;20.924;2022-09-27T08:10:59;99228.22;;;13.47;100.00
56174;BME280;42058;52.308;20.924;2022-09-27T08:13:25;99230.30;;;13.49;100.00
56174;BME280;42058;52.308;20.924;2022-09-27T08:15:52;99231.52;;;13.51;100.00
56174;BME280;42058;52.308;20.924;2022-09-27T08:18:18;99225.86;;;13.50;100.00
56174;BME280;42058;52.308;20.924;2022-09-27T08:20:57;99223.13;;;13.51;100.00
56174;BME280;42058;52.308;20.924;2022-09-27T08:23:44;99227.86;;;13.53;100.00
56174;BME280;42058;52.308;20.924;2022-09-27T08:26:15;99227.30;;;13.55;100.00
56174;BME280;42058;52.308;20.924;2022-09-27T08:28:52;99227.69;;;13.56;100.00
56174;BME280;42058;52.308;20.924;2022-09-27T08:31:20;99225.72;;;13.60;100.00
56174;BME280;42058;52.308;20.924;2022-09-27T08:33:49;99226.17;;;13.59;100.00
56174;BME280;42058;52.308;20.924;2022-09-27T08:36:16;99232.69;;;13.61;100.00
56174;BME280;42058;52.308;20.924;2022-09-27T08:38:42;99227.88;;;13.60;100.00
56174;BME280;42058;52.308;20.924;2022-09-27T08:41:30;99234.41;;;13.62;100.00
56174;BME280;42058;52.308;20.924;2022-09-27T08:50:23;99233.95;;;13.70;100.00
56174;BME280;42058;52.308;20.924;2022-09-27T08:52:46;99233.39;;;13.72;100.00
56174;BME280;42058;52.308;20.924;2022-09-27T08:55:37;99234.06;;;13.75;100.00
56174;BME280;42058;52.308;20.924;2022-09-27T08:58:40;99236.05;;;13.79;100.00
56174;BME280;42058;52.308;20.924;2022-09-27T09:01:14;99232.84;;;13.81;100.00
56174;BME280;42058;52.308;20.924;2022-09-27T09:03:52;99237.97;;;13.84;100.00
56174;BME280;42058;52.308;20.924;2022-09-27T09:06:22;99237.76;;;13.87;100.00
56174;BME280;42058;52.308;20.924;2022-09-27T09:18:15;99226.38;;;14.01;100.00
56174;BME280;42058;52.308;20.924;2022-09-27T09:21:30;99220.42;;;14.04;100.00
56174;BME280;42058;52.308;20.924;2022-09-27T09:27:03;99213.34;;;14.12;100.00
56174;BME280;42058;52.308;20.924;2022-09-27T09:30:00;99212.12;;;14.18;100.00
56174;BME280;42058;52.308;20.924;2022-09-27T09:35:54;99193.81;;;14.29;100.00
56174;BME280;42058;52.308;20.924;2022-09-27T09:38:28;99190.78;;;14.35;100.00
56174;BME280;42058;52.308;20.924;2022-09-27T09:41:17;99195.67;;;14.41;100.00
56174;BME280;42058;52.308;20.924;2022-09-27T09:44:20;99192.85;;;14.45;100.00
56174;BME280;42058;52.308;20.924;2022-09-27T09:46:55;99201.94;;;14.48;100.00
56174;BME280;42058;52.308;20.924;2022-09-27T09:49:28;99209.57;;;14.52;100.00
56174;BME280;42058;52.308;20.924;2022-09-27T09:52:04;99201.93;;;14.55;100.00
56174;BME280;42058;52.308;20.924;2022-09-27T09:54:36;99200.42;;;14.58;100.00
56174;BME280;42058;52.308;20.924;2022-09-27T10:02:39;99205.05;;;14.69;100.00
56174;BME280;42058;52.308;20.924;2022-09-27T10:05:18;99203.45;;;14.73;100.00
56174;BME280;42058;52.308;20.924;2022-09-27T10:07:50;99198.72;;;14.78;100.00
56174;BME280;42058;52.308;20.924;2022-09-27T10:10:19;99196.98;;;14.85;100.00
56174;BME280;42058;52.308;20.924;2022-09-27T10:13:04;99196.98;;;14.85;100.00
56174;BME280;42058;52.308;20.924;2022-09-27T10:15:32;99183.00;;;14.83;100.00
56174;BME280;42058;52.308;20.924;2022-09-27T10:17:59;99183.92;;;14.89;100.00
56174;BME280;42058;52.308;20.924;2022-09-27T10:20:44;99174.81;;;14.93;100.00
56174;BME280;42058;52.308;20.924;2022-09-27T10:23:21;99174.81;;;14.93;100.00
56174;BME280;42058;52.308;20.924;2022-09-27T10:26:09;99170.73;;;15.02;100.00
56174;BME280;42058;52.308;20.924;2022-09-27T10:28:41;99177.52;;;15.06;100.00
56174;BME280;42058;52.308;20.924;2022-09-27T10:31:14;99171.55;;;15.09;100.00
56174;BME280;42058;52.308;20.924;2022-09-27T10:33:59;99171.55;;;15.09;100.00
56174;BME280;42058;52.308;20.924;2022-09-27T10:36:35;99175.81;;;15.12;100.00
56174;BME280;42058;52.308;20.924;2022-09-27T10:39:05;99175.81;;;15.12;100.00
56174;BME280;42058;52.308;20.924;2022-09-27T10:41:38;99166.22;;;15.16;100.00
56174;BME280;42058;52.308;20.924;2022-09-27T10:44:27;99165.64;;;15.18;100.00
56174;BME280;42058;52.308;20.924;2022-09-27T10:47:05;99165.64;;;15.18;100.00
56174;BME280;42058;52.308;20.924;2022-09-27T10:49:39;99167.75;;;15.21;100.00
56174;BME280;42058;52.308;20.924;2022-09-27T10:52:19;99162.99;;;15.18;100.00
56174;BME280;42058;52.308;20.924;2022-09-27T10:54:55;99162.55;;;15.19;100.00
56174;BME280;42058;52.308;20.924;2022-09-27T10:57:29;99161.86;;;15.23;100.00
56174;BME280;42058;52.308;20.924;2022-09-27T10:59:59;99161.86;;;15.23;100.00
56174;BME280;42058;52.308;20.924;2022-09-27T11:02:31;99164.88;;;15.24;100.00
56174;BME280;42058;52.308;20.924;2022-09-27T11:05:12;99159.47;;;15.25;100.00
56174;BME280;42058;52.308;20.924;2022-09-27T11:07:56;99159.47;;;15.25;100.00
56174;BME280;42058;52.308;20.924;2022-09-27T11:10:34;99149.94;;;15.23;100.00
56174;BME280;42058;52.308;20.924;2022-09-27T11:13:15;99140.70;;;15.15;100.00
56174;BME280;42058;52.308;20.924;2022-09-27T11:15:59;99145.41;;;15.17;100.00
56174;BME280;42058;52.308;20.924;2022-09-27T11:18:57;99137.47;;;15.17;100.00
56174;BME280;42058;52.308;20.924;2022-09-27T11:28:41;99134.07;;;15.15;100.00
56174;BME280;42058;52.308;20.924;2022-09-27T11:34:29;99141.08;;;15.09;100.00
56174;BME280;42058;52.308;20.924;2022-09-27T11:45:52;99114.97;;;15.10;100.00
56174;BME280;42058;52.308;20.924;2022-09-27T11:48:38;99117.52;;;15.12;100.00
56174;BME280;42058;52.308;20.924;2022-09-27T11:51:59;99117.05;;;15.12;100.00
56174;BME280;42058;52.308;20.924;2022-09-27T11:57:46;99115.72;;;15.12;100.00
56174;BME280;42058;52.308;20.924;2022-09-27T12:00:21;99109.67;;;15.10;100.00
56174;BME280;42058;52.308;20.924;2022-09-27T12:06:17;99115.69;;;15.19;100.00
56174;BME280;42058;52.308;20.924;2022-09-27T12:09:02;99106.16;;;15.17;100.00
56174;BME280;42058;52.308;20.924;2022-09-27T12:11:50;99112.45;;;15.22;100.00
56174;BME280;42058;52.308;20.924;2022-09-27T12:14:51;99107.16;;;15.22;100.00
56174;BME280;42058;52.308;20.924;2022-09-27T12:17:18;99102.05;;;15.18;100.00
56174;BME280;42058;52.308;20.924;2022-09-27T12:19:50;99102.24;;;15.23;100.00
56174;BME280;42058;52.308;20.924;2022-09-27T12:22:48;99106.77;;;15.28;100.00
56174;BME280;42058;52.308;20.924;2022-09-27T12:25:47;99099.07;;;15.30;100.00
56174;BME280;42058;52.308;20.924;2022-09-27T12:28:33;99102.08;;;15.31;100.00
56174;BME280;42058;52.308;20.924;2022-09-27T12:31:24;99094.99;;;15.32;100.00
56174;BME280;42058;52.308;20.924;2022-09-27T12:34:17;99100.06;;;15.35;100.00
56174;BME280;42058;52.308;20.924;2022-09-27T12:36:52;99092.02;;;15.36;100.00
56174;BME280;42058;52.308;20.924;2022-09-27T12:39:43;99085.87;;;15.36;100.00
56174;BME280;42058;52.308;20.924;2022-09-27T12:42:43;99081.70;;;15.39;100.00
56174;BME280;42058;52.308;20.924;2022-09-27T12:45:13;99081.70;;;15.39;100.00
56174;BME280;42058;52.308;20.924;2022-09-27T12:48:03;99080.53;;;15.43;100.00
56174;BME280;42058;52.308;20.924;2022-09-27T12:50:36;99080.33;;;15.46;100.00
56174;BME280;42058;52.308;20.924;2022-09-27T12:59:03;99086.37;;;15.48;100.00
56174;BME280;42058;52.308;20.924;2022-09-27T13:08:14;99081.23;;;15.52;100.00
56174;BME280;42058;52.308;20.924;2022-09-27T13:13:18;99065.95;;;15.56;100.00
56174;BME280;42058;52.308;20.924;2022-09-27T13:15:46;99063.69;;;15.57;100.00
56174;BME280;42058;52.308;20.924;2022-09-27T13:21:06;99056.19;;;15.56;100.00
56174;BME280;42058;52.308;20.924;2022-09-27T13:23:48;99063.36;;;15.62;100.00
56174;BME280;42058;52.308;20.924;2022-09-27T13:29:10;99061.34;;;15.65;100.00
56174;BME280;42058;52.308;20.924;2022-09-27T13:34:38;99051.81;;;15.63;100.00
56174;BME280;42058;52.308;20.924;2022-09-27T13:37:40;99050.48;;;15.63;100.00
56174;BME280;42058;52.308;20.924;2022-09-27T13:46:03;99048.23;;;15.69;100.00
56174;BME280;42058;52.308;20.924;2022-09-27T13:51:26;99029.56;;;15.71;100.00
56174;BME280;42058;52.308;20.924;2022-09-27T13:54:04;99031.17;;;15.73;100.00
56174;BME280;42058;52.308;20.924;2022-09-27T13:56:51;99031.17;;;15.73;100.00
56174;BME280;42058;52.308;20.924;2022-09-27T13:59:25;99026.74;;;15.74;100.00
56174;BME280;42058;52.308;20.924;2022-09-27T14:04:56;99015.72;;;15.73;100.00
56174;BME280;42058;52.308;20.924;2022-09-27T14:07:16;99016.97;;;15.74;100.00
56174;BME280;42058;52.308;20.924;2022-09-27T14:09:47;99019.52;;;15.76;100.00
56174;BME280;42058;52.308;20.924;2022-09-27T14:12:21;99024.23;;;15.78;100.00
56174;BME280;42058;52.308;20.924;2022-09-27T14:14:56;99011.95;;;15.77;100.00
56174;BME280;42058;52.308;20.924;2022-09-27T14:17:24;99012.41;;;15.76;100.00
56174;BME280;42058;52.308;20.924;2022-09-27T14:19:51;99007.59;;;15.76;100.00
56174;BME280;42058;52.308;20.924;2022-09-27T14:22:21;98997.92;;;15.75;100.00
56174;BME280;42058;52.308;20.924;2022-09-27T14:24:55;98996.59;;;15.75;100.00
56174;BME280;42058;52.308;20.924;2022-09-27T14:27:26;99004.20;;;15.74;100.00
56174;BME280;42058;52.308;20.924;2022-09-27T14:30:09;99006.85;;;15.74;100.00
56174;BME280;42058;52.308;20.924;2022-09-27T14:32:49;99003.22;;;15.75;100.00
56174;BME280;42058;52.308;20.924;2022-09-27T14:35:24;99001.45;;;15.75;100.00
56174;BME280;42058;52.308;20.924;2022-09-27T14:38:13;98990.94;;;15.74;100.00
56174;BME280;42058;52.308;20.924;2022-09-27T14:40:53;98992.72;;;15.73;100.00
56174;BME280;42058;52.308;20.924;2022-09-27T14:43:20;98998.97;;;15.72;100.00
56174;BME280;42058;52.308;20.924;2022-09-27T14:45:50;99005.70;;;15.71;100.00
56174;BME280;42058;52.308;20.924;2022-09-27T14:48:28;99003.64;;;15.69;100.00
56174;BME280;42058;52.308;20.924;2022-09-27T14:53:40;98996.63;;;15.68;100.00
56174;BME280;42058;52.308;20.924;2022-09-27T14:56:16;98999.27;;;15.68;100.00
56174;BME280;42058;52.308;20.924;2022-09-27T14:58:45;98997.59;;;15.67;100.00
56174;BME280;42058;52.308;20.924;2022-09-27T15:01:16;98993.23;;;15.66;100.00
56174;BME280;42058;52.308;20.924;2022-09-27T15:03:46;98994.56;;;15.66;100.00
56174;BME280;42058;52.308;20.924;2022-09-27T15:06:17;98993.83;;;15.64;100.00